sensor_id;sensor_type;location;lat;lon;timestamp;temperature;humidity
14475;DHT22;7323;50.848;4.334;2024-02-16T00:00:17;14.70;1.00
14475;DHT22;7323;50.848;4.334;2024-02-16T00:02:43;14.40;1.00
14475;DHT22;7323;50.848;4.334;2024-02-16T00:05:10;14.60;1.00
14475;DHT22;7323;50.848;4.334;2024-02-16T00:07:37;14.60;1.00
14475;DHT22;7323;50.848;4.334;2024-02-16T00:10:04;14.60;1.00
14475;DHT22;7323;50.848;4.334;2024-02-16T00:12:31;14.70;1.00
14475;DHT22;7323;50.848;4.334;2024-02-16T00:14:57;14.70;1.00
14475;DHT22;7323;50.848;4.334;2024-02-16T00:17:23;14.60;1.00
14475;DHT22;7323;50.848;4.334;2024-02-16T00:19:52;14.60;1.00
14475;DHT22;7323;50.848;4.334;2024-02-16T00:22:18;14.70;1.00
14475;DHT22;7323;50.848;4.334;2024-02-16T00:24:44;14.60;1.00
14475;DHT22;7323;50.848;4.334;2024-02-16T00:27:10;14.60;1.00
14475;DHT22;7323;50.848;4.334;2024-02-16T00:29:36;14.60;1.00
14475;DHT22;7323;50.848;4.334;2024-02-16T00:32:04;14.60;1.00
14475;DHT22;7323;50.848;4.334;2024-02-16T00:34:32;14.60;1.00
14475;DHT22;7323;50.848;4.334;2024-02-16T00:36:58;14.60;1.00
14475;DHT22;7323;50.848;4.334;2024-02-16T00:39:24;14.70;1.00
14475;DHT22;7323;50.848;4.334;2024-02-16T00:41:50;14.60;1.00
14475;DHT22;7323;50.848;4.334;2024-02-16T00:44:16;14.70;1.00
14475;DHT22;7323;50.848;4.334;2024-02-16T00:46:43;14.70;1.00
14475;DHT22;7323;50.848;4.334;2024-02-16T00:49:09;14.70;1.00
14475;DHT22;7323;50.848;4.334;2024-02-16T00:51:36;14.70;1.00
14475;DHT22;7323;50.848;4.334;2024-02-16T00:54:02;14.70;1.00
14475;DHT22;7323;50.848;4.334;2024-02-16T00:56:29;14.70;1.00
14475;DHT22;7323;50.848;4.334;2024-02-16T00:58:55;14.70;1.00
14475;DHT22;7323;50.848;4.334;2024-02-16T01:01:20;14.70;1.00
14475;DHT22;7323;50.848;4.334;2024-02-16T01:03:48;14.60;1.00
14475;DHT22;7323;50.848;4.334;2024-02-16T01:06:14;14.60;1.00
14475;DHT22;7323;50.848;4.334;2024-02-16T01:08:40;14.60;1.00
14475;DHT22;7323;50.848;4.334;2024-02-16T01:11:06;14.60;1.00
14475;DHT22;7323;50.848;4.334;2024-02-16T01:13:33;14.60;1.00
14475;DHT22;7323;50.848;4.334;2024-02-16T01:15:58;14.50;1.00
14475;DHT22;7323;50.848;4.334;2024-02-16T01:18:25;14.60;1.00
14475;DHT22;7323;50.848;4.334;2024-02-16T01:20:51;14.60;1.00
14475;DHT22;7323;50.848;4.334;2024-02-16T01:23:17;14.60;1.00
14475;DHT22;7323;50.848;4.334;2024-02-16T01:25:43;14.60;1.00
14475;DHT22;7323;50.848;4.334;2024-02-16T01:28:08;14.60;1.00
14475;DHT22;7323;50.848;4.334;2024-02-16T01:30:34;14.60;1.00
14475;DHT22;7323;50.848;4.334;2024-02-16T01:33:00;14.60;1.00
14475;DHT22;7323;50.848;4.334;2024-02-16T01:35:25;14.60;1.00
14475;DHT22;7323;50.848;4.334;2024-02-16T01:37:51;14.60;1.00
14475;DHT22;7323;50.848;4.334;2024-02-16T01:40:17;14.60;1.00
14475;DHT22;7323;50.848;4.334;2024-02-16T01:42:49;14.70;1.00
14475;DHT22;7323;50.848;4.334;2024-02-16T01:45:15;14.70;1.00
14475;DHT22;7323;50.848;4.334;2024-02-16T01:47:43;14.60;1.00
14475;DHT22;7323;50.848;4.334;2024-02-16T01:50:09;14.70;1.00
14475;DHT22;7323;50.848;4.334;2024-02-16T01:52:36;14.70;1.00
14475;DHT22;7323;50.848;4.334;2024-02-16T01:55:04;14.70;1.00
14475;DHT22;7323;50.848;4.334;2024-02-16T01:57:31;14.70;1.00
14475;DHT22;7323;50.848;4.334;2024-02-16T01:59:57;14.70;1.00
14475;DHT22;7323;50.848;4.334;2024-02-16T02:02:23;14.60;1.00
14475;DHT22;7323;50.848;4.334;2024-02-16T02:04:49;14.60;1.00
14475;DHT22;7323;50.848;4.334;2024-02-16T02:07:15;14.60;1.00
14475;DHT22;7323;50.848;4.334;2024-02-16T02:09:41;14.60;1.00
14475;DHT22;7323;50.848;4.334;2024-02-16T02:12:10;14.60;1.00
14475;DHT22;7323;50.848;4.334;2024-02-16T02:14:36;14.50;1.00
14475;DHT22;7323;50.848;4.334;2024-02-16T02:17:04;14.60;1.00
14475;DHT22;7323;50.848;4.334;2024-02-16T02:19:30;14.60;1.00
14475;DHT22;7323;50.848;4.334;2024-02-16T02:21:56;14.60;1.00
14475;DHT22;7323;50.848;4.334;2024-02-16T02:24:22;14.60;1.00
14475;DHT22;7323;50.848;4.334;2024-02-16T02:26:48;14.60;1.00
14475;DHT22;7323;50.848;4.334;2024-02-16T02:29:14;14.60;1.00
14475;DHT22;7323;50.848;4.334;2024-02-16T02:31:39;14.70;1.00
14475;DHT22;7323;50.848;4.334;2024-02-16T02:34:06;14.60;1.00
14475;DHT22;7323;50.848;4.334;2024-02-16T02:36:32;14.60;1.00
14475;DHT22;7323;50.848;4.334;2024-02-16T02:39:00;14.60;1.00
14475;DHT22;7323;50.848;4.334;2024-02-16T02:41:26;14.60;1.00
14475;DHT22;7323;50.848;4.334;2024-02-16T02:43:52;14.60;1.00
14475;DHT22;7323;50.848;4.334;2024-02-16T02:46:18;14.60;1.00
14475;DHT22;7323;50.848;4.334;2024-02-16T02:48:44;14.60;1.00
14475;DHT22;7323;50.848;4.334;2024-02-16T02:51:10;14.70;1.00
14475;DHT22;7323;50.848;4.334;2024-02-16T02:53:36;14.60;1.00
14475;DHT22;7323;50.848;4.334;2024-02-16T02:56:02;14.70;1.00
14475;DHT22;7323;50.848;4.334;2024-02-16T02:58:28;14.70;1.00
14475;DHT22;7323;50.848;4.334;2024-02-16T03:00:54;14.70;1.00
14475;DHT22;7323;50.848;4.334;2024-02-16T03:03:21;14.70;1.00
14475;DHT22;7323;50.848;4.334;2024-02-16T03:05:47;14.70;1.00
14475;DHT22;7323;50.848;4.334;2024-02-16T03:08:14;14.80;1.00
14475;DHT22;7323;50.848;4.334;2024-02-16T03:10:40;14.80;1.00
14475;DHT22;7323;50.848;4.334;2024-02-16T03:13:06;14.80;1.00
14475;DHT22;7323;50.848;4.334;2024-02-16T03:15:34;14.80;1.00
14475;DHT22;7323;50.848;4.334;2024-02-16T03:18:01;14.80;1.00
14475;DHT22;7323;50.848;4.334;2024-02-16T03:20:27;14.80;1.00
14475;DHT22;7323;50.848;4.334;2024-02-16T03:22:53;14.80;1.00
14475;DHT22;7323;50.848;4.334;2024-02-16T03:25:18;14.70;1.00
14475;DHT22;7323;50.848;4.334;2024-02-16T03:27:45;14.70;1.20
14475;DHT22;7323;50.848;4.334;2024-02-16T03:30:11;14.70;1.00
14475;DHT22;7323;50.848;4.334;2024-02-16T03:32:36;14.70;1.00
14475;DHT22;7323;50.848;4.334;2024-02-16T03:35:03;14.70;1.40
14475;DHT22;7323;50.848;4.334;2024-02-16T03:37:29;14.70;2.60
14475;DHT22;7323;50.848;4.334;2024-02-16T03:39:56;14.70;3.70
14475;DHT22;7323;50.848;4.334;2024-02-16T03:42:21;14.70;3.30
14475;DHT22;7323;50.848;4.334;2024-02-16T03:44:47;14.80;3.40
14475;DHT22;7323;50.848;4.334;2024-02-16T03:47:13;14.70;5.30
14475;DHT22;7323;50.848;4.334;2024-02-16T03:49:39;14.70;6.60
14475;DHT22;7323;50.848;4.334;2024-02-16T03:52:05;14.80;7.60
14475;DHT22;7323;50.848;4.334;2024-02-16T03:54:31;14.70;6.60
14475;DHT22;7323;50.848;4.334;2024-02-16T03:56:57;14.70;7.40
14475;DHT22;7323;50.848;4.334;2024-02-16T03:59:23;14.70;8.90
14475;DHT22;7323;50.848;4.334;2024-02-16T04:01:49;14.70;9.40
14475;DHT22;7323;50.848;4.334;2024-02-16T04:04:15;14.70;10.60
14475;DHT22;7323;50.848;4.334;2024-02-16T04:06:41;14.70;11.60
14475;DHT22;7323;50.848;4.334;2024-02-16T04:09:07;14.70;11.80
14475;DHT22;7323;50.848;4.334;2024-02-16T04:11:33;14.70;12.10
14475;DHT22;7323;50.848;4.334;2024-02-16T04:13:59;14.70;12.40
14475;DHT22;7323;50.848;4.334;2024-02-16T04:16:25;14.80;13.10
14475;DHT22;7323;50.848;4.334;2024-02-16T04:18:51;14.70;13.20
14475;DHT22;7323;50.848;4.334;2024-02-16T04:21:17;14.70;13.80
14475;DHT22;7323;50.848;4.334;2024-02-16T04:23:43;14.70;14.30
14475;DHT22;7323;50.848;4.334;2024-02-16T04:26:09;14.70;14.70
14475;DHT22;7323;50.848;4.334;2024-02-16T04:28:35;14.70;15.60
14475;DHT22;7323;50.848;4.334;2024-02-16T04:31:01;14.80;14.60
14475;DHT22;7323;50.848;4.334;2024-02-16T04:33:27;14.80;15.00
14475;DHT22;7323;50.848;4.334;2024-02-16T04:35:52;14.80;14.90
14475;DHT22;7323;50.848;4.334;2024-02-16T04:38:18;14.80;14.40
14475;DHT22;7323;50.848;4.334;2024-02-16T04:40:45;14.80;14.90
14475;DHT22;7323;50.848;4.334;2024-02-16T04:43:11;14.80;15.30
14475;DHT22;7323;50.848;4.334;2024-02-16T04:45:36;14.80;16.10
14475;DHT22;7323;50.848;4.334;2024-02-16T04:48:06;14.80;16.20
14475;DHT22;7323;50.848;4.334;2024-02-16T04:50:32;14.80;17.90
14475;DHT22;7323;50.848;4.334;2024-02-16T04:52:59;14.80;19.00
14475;DHT22;7323;50.848;4.334;2024-02-16T04:55:25;14.80;18.20
14475;DHT22;7323;50.848;4.334;2024-02-16T04:57:51;14.80;19.00
14475;DHT22;7323;50.848;4.334;2024-02-16T05:00:16;14.80;18.40
14475;DHT22;7323;50.848;4.334;2024-02-16T05:02:42;14.80;19.60
14475;DHT22;7323;50.848;4.334;2024-02-16T05:05:08;14.90;19.60
14475;DHT22;7323;50.848;4.334;2024-02-16T05:07:33;15.00;18.20
14475;DHT22;7323;50.848;4.334;2024-02-16T05:10:01;15.00;17.50
14475;DHT22;7323;50.848;4.334;2024-02-16T05:12:27;15.00;17.90
14475;DHT22;7323;50.848;4.334;2024-02-16T05:14:53;15.00;16.70
14475;DHT22;7323;50.848;4.334;2024-02-16T05:17:19;15.00;19.50
14475;DHT22;7323;50.848;4.334;2024-02-16T05:19:48;15.00;21.20
14475;DHT22;7323;50.848;4.334;2024-02-16T05:22:13;15.00;19.80
14475;DHT22;7323;50.848;4.334;2024-02-16T05:24:40;15.00;20.40
14475;DHT22;7323;50.848;4.334;2024-02-16T05:27:06;15.00;21.40
14475;DHT22;7323;50.848;4.334;2024-02-16T05:29:31;15.00;21.90
14475;DHT22;7323;50.848;4.334;2024-02-16T05:31:57;15.00;21.50
14475;DHT22;7323;50.848;4.334;2024-02-16T05:34:23;15.10;20.20
14475;DHT22;7323;50.848;4.334;2024-02-16T05:36:50;15.10;19.10
14475;DHT22;7323;50.848;4.334;2024-02-16T05:39:15;15.10;19.30
14475;DHT22;7323;50.848;4.334;2024-02-16T05:41:52;15.20;16.70
14475;DHT22;7323;50.848;4.334;2024-02-16T05:44:19;15.10;20.30
14475;DHT22;7323;50.848;4.334;2024-02-16T05:46:45;15.00;22.20
14475;DHT22;7323;50.848;4.334;2024-02-16T05:49:12;15.00;23.40
14475;DHT22;7323;50.848;4.334;2024-02-16T05:51:38;15.10;22.90
14475;DHT22;7323;50.848;4.334;2024-02-16T05:54:06;15.00;24.30
14475;DHT22;7323;50.848;4.334;2024-02-16T05:56:33;15.00;25.40
14475;DHT22;7323;50.848;4.334;2024-02-16T05:59:00;15.00;24.30
14475;DHT22;7323;50.848;4.334;2024-02-16T06:01:26;15.10;23.20
14475;DHT22;7323;50.848;4.334;2024-02-16T06:03:53;15.00;24.20
14475;DHT22;7323;50.848;4.334;2024-02-16T06:06:19;15.00;25.20
14475;DHT22;7323;50.848;4.334;2024-02-16T06:08:44;15.00;24.70
14475;DHT22;7323;50.848;4.334;2024-02-16T06:11:10;15.00;26.90
14475;DHT22;7323;50.848;4.334;2024-02-16T06:13:36;14.90;28.60
14475;DHT22;7323;50.848;4.334;2024-02-16T06:16:05;14.90;29.50
14475;DHT22;7323;50.848;4.334;2024-02-16T06:18:34;15.00;27.50
14475;DHT22;7323;50.848;4.334;2024-02-16T06:21:00;14.90;30.20
14475;DHT22;7323;50.848;4.334;2024-02-16T06:23:25;14.90;33.90
14475;DHT22;7323;50.848;4.334;2024-02-16T06:25:51;14.90;35.60
14475;DHT22;7323;50.848;4.334;2024-02-16T06:28:17;14.90;37.60
14475;DHT22;7323;50.848;4.334;2024-02-16T06:30:42;14.90;40.70
14475;DHT22;7323;50.848;4.334;2024-02-16T06:33:08;14.80;46.30
14475;DHT22;7323;50.848;4.334;2024-02-16T06:35:35;14.80;50.30
14475;DHT22;7323;50.848;4.334;2024-02-16T06:38:01;14.70;53.10
14475;DHT22;7323;50.848;4.334;2024-02-16T06:40:27;14.70;53.90
14475;DHT22;7323;50.848;4.334;2024-02-16T06:42:53;14.60;57.00
14475;DHT22;7323;50.848;4.334;2024-02-16T06:45:20;14.60;59.20
14475;DHT22;7323;50.848;4.334;2024-02-16T06:47:45;14.60;58.50
14475;DHT22;7323;50.848;4.334;2024-02-16T06:50:11;14.60;60.50
14475;DHT22;7323;50.848;4.334;2024-02-16T06:52:37;14.50;63.70
14475;DHT22;7323;50.848;4.334;2024-02-16T06:55:03;14.50;70.90
14475;DHT22;7323;50.848;4.334;2024-02-16T06:57:29;14.50;72.80
14475;DHT22;7323;50.848;4.334;2024-02-16T06:59:56;14.60;69.60
14475;DHT22;7323;50.848;4.334;2024-02-16T07:02:23;14.70;67.20
14475;DHT22;7323;50.848;4.334;2024-02-16T07:04:48;14.70;67.90
14475;DHT22;7323;50.848;4.334;2024-02-16T07:07:14;14.60;71.10
14475;DHT22;7323;50.848;4.334;2024-02-16T07:09:40;14.60;74.40
14475;DHT22;7323;50.848;4.334;2024-02-16T07:12:06;14.60;71.40
14475;DHT22;7323;50.848;4.334;2024-02-16T07:14:32;14.50;75.60
14475;DHT22;7323;50.848;4.334;2024-02-16T07:16:58;14.40;83.40
14475;DHT22;7323;50.848;4.334;2024-02-16T07:19:23;14.50;84.30
14475;DHT22;7323;50.848;4.334;2024-02-16T07:21:50;14.50;84.00
14475;DHT22;7323;50.848;4.334;2024-02-16T07:24:16;14.50;82.10
14475;DHT22;7323;50.848;4.334;2024-02-16T07:26:42;14.40;83.50
14475;DHT22;7323;50.848;4.334;2024-02-16T07:29:08;14.50;83.40
14475;DHT22;7323;50.848;4.334;2024-02-16T07:31:34;14.50;83.30
14475;DHT22;7323;50.848;4.334;2024-02-16T07:34:01;14.40;81.50
14475;DHT22;7323;50.848;4.334;2024-02-16T07:36:26;14.40;81.80
14475;DHT22;7323;50.848;4.334;2024-02-16T07:38:52;14.40;83.10
14475;DHT22;7323;50.848;4.334;2024-02-16T07:41:18;14.40;84.80
14475;DHT22;7323;50.848;4.334;2024-02-16T07:43:43;14.40;81.50
14475;DHT22;7323;50.848;4.334;2024-02-16T07:46:09;14.50;78.70
14475;DHT22;7323;50.848;4.334;2024-02-16T07:48:34;14.50;73.60
14475;DHT22;7323;50.848;4.334;2024-02-16T07:51:00;14.50;76.20
14475;DHT22;7323;50.848;4.334;2024-02-16T07:53:28;14.50;73.00
14475;DHT22;7323;50.848;4.334;2024-02-16T07:55:54;14.60;69.80
14475;DHT22;7323;50.848;4.334;2024-02-16T07:58:20;14.60;64.50
14475;DHT22;7323;50.848;4.334;2024-02-16T08:00:46;14.60;65.70
14475;DHT22;7323;50.848;4.334;2024-02-16T08:03:11;14.60;59.10
14475;DHT22;7323;50.848;4.334;2024-02-16T08:05:37;14.70;55.90
14475;DHT22;7323;50.848;4.334;2024-02-16T08:08:03;14.60;52.20
14475;DHT22;7323;50.848;4.334;2024-02-16T08:10:29;14.70;46.90
14475;DHT22;7323;50.848;4.334;2024-02-16T08:12:55;14.70;45.90
14475;DHT22;7323;50.848;4.334;2024-02-16T08:15:20;14.80;41.00
14475;DHT22;7323;50.848;4.334;2024-02-16T08:17:49;14.80;41.10
14475;DHT22;7323;50.848;4.334;2024-02-16T08:20:18;14.80;41.00
14475;DHT22;7323;50.848;4.334;2024-02-16T08:22:44;14.70;43.50
14475;DHT22;7323;50.848;4.334;2024-02-16T08:25:09;14.80;41.80
14475;DHT22;7323;50.848;4.334;2024-02-16T08:27:36;14.80;43.40
14475;DHT22;7323;50.848;4.334;2024-02-16T08:30:03;14.90;39.40
14475;DHT22;7323;50.848;4.334;2024-02-16T08:32:29;14.70;45.90
14475;DHT22;7323;50.848;4.334;2024-02-16T08:34:55;14.70;49.80
14475;DHT22;7323;50.848;4.334;2024-02-16T08:37:21;14.70;56.30
14475;DHT22;7323;50.848;4.334;2024-02-16T08:39:47;14.60;62.20
14475;DHT22;7323;50.848;4.334;2024-02-16T08:42:13;14.60;69.50
14475;DHT22;7323;50.848;4.334;2024-02-16T08:44:39;14.50;74.70
14475;DHT22;7323;50.848;4.334;2024-02-16T08:47:06;14.50;82.20
14475;DHT22;7323;50.848;4.334;2024-02-16T08:49:33;14.30;90.10
14475;DHT22;7323;50.848;4.334;2024-02-16T08:51:59;14.40;91.60
14475;DHT22;7323;50.848;4.334;2024-02-16T08:54:25;14.40;91.50
14475;DHT22;7323;50.848;4.334;2024-02-16T08:56:52;14.40;91.00
14475;DHT22;7323;50.848;4.334;2024-02-16T08:59:18;14.40;91.60
14475;DHT22;7323;50.848;4.334;2024-02-16T09:01:44;14.40;93.20
14475;DHT22;7323;50.848;4.334;2024-02-16T09:04:10;14.40;93.50
14475;DHT22;7323;50.848;4.334;2024-02-16T09:06:35;14.40;92.10
14475;DHT22;7323;50.848;4.334;2024-02-16T09:09:01;14.50;91.80
14475;DHT22;7323;50.848;4.334;2024-02-16T09:11:27;14.50;91.80
14475;DHT22;7323;50.848;4.334;2024-02-16T09:13:53;14.50;92.40
14475;DHT22;7323;50.848;4.334;2024-02-16T09:16:19;14.50;92.50
14475;DHT22;7323;50.848;4.334;2024-02-16T09:18:45;14.50;92.70
14475;DHT22;7323;50.848;4.334;2024-02-16T09:21:13;14.50;93.30
14475;DHT22;7323;50.848;4.334;2024-02-16T09:23:40;14.70;92.90
14475;DHT22;7323;50.848;4.334;2024-02-16T09:26:06;14.70;93.60
14475;DHT22;7323;50.848;4.334;2024-02-16T09:28:41;14.70;93.40
14475;DHT22;7323;50.848;4.334;2024-02-16T09:31:07;14.70;95.10
14475;DHT22;7323;50.848;4.334;2024-02-16T09:33:33;14.60;95.90
14475;DHT22;7323;50.848;4.334;2024-02-16T09:36:00;14.60;97.40
14475;DHT22;7323;50.848;4.334;2024-02-16T09:38:26;14.50;99.90
14475;DHT22;7323;50.848;4.334;2024-02-16T09:40:51;14.50;99.90
14475;DHT22;7323;50.848;4.334;2024-02-16T09:43:28;14.50;99.90
14475;DHT22;7323;50.848;4.334;2024-02-16T09:45:58;14.60;99.90
14475;DHT22;7323;50.848;4.334;2024-02-16T09:48:26;14.50;99.90
14475;DHT22;7323;50.848;4.334;2024-02-16T09:50:55;14.50;99.90
14475;DHT22;7323;50.848;4.334;2024-02-16T09:53:24;14.50;99.90
14475;DHT22;7323;50.848;4.334;2024-02-16T09:55:50;14.50;99.90
14475;DHT22;7323;50.848;4.334;2024-02-16T09:58:17;14.60;99.90
14475;DHT22;7323;50.848;4.334;2024-02-16T10:00:51;14.50;99.90
14475;DHT22;7323;50.848;4.334;2024-02-16T10:03:27;14.50;99.90
14475;DHT22;7323;50.848;4.334;2024-02-16T10:06:07;14.50;99.90
14475;DHT22;7323;50.848;4.334;2024-02-16T10:08:34;14.50;99.90
14475;DHT22;7323;50.848;4.334;2024-02-16T10:11:04;14.60;99.90
14475;DHT22;7323;50.848;4.334;2024-02-16T10:13:31;14.70;99.90
14475;DHT22;7323;50.848;4.334;2024-02-16T10:16:07;14.80;99.90
14475;DHT22;7323;50.848;4.334;2024-02-16T10:18:40;14.70;99.90
14475;DHT22;7323;50.848;4.334;2024-02-16T10:21:05;14.60;99.90
14475;DHT22;7323;50.848;4.334;2024-02-16T10:23:31;14.50;99.90
14475;DHT22;7323;50.848;4.334;2024-02-16T10:25:58;14.50;99.90
14475;DHT22;7323;50.848;4.334;2024-02-16T10:28:25;14.60;99.90
14475;DHT22;7323;50.848;4.334;2024-02-16T10:31:00;14.60;99.90
14475;DHT22;7323;50.848;4.334;2024-02-16T10:33:28;14.50;99.90
14475;DHT22;7323;50.848;4.334;2024-02-16T10:35:56;14.60;99.90
14475;DHT22;7323;50.848;4.334;2024-02-16T10:38:25;14.60;99.90
14475;DHT22;7323;50.848;4.334;2024-02-16T10:40:53;14.70;99.90
14475;DHT22;7323;50.848;4.334;2024-02-16T10:43:21;14.50;99.90
14475;DHT22;7323;50.848;4.334;2024-02-16T10:45:48;14.50;99.90
14475;DHT22;7323;50.848;4.334;2024-02-16T10:48:18;14.50;99.90
14475;DHT22;7323;50.848;4.334;2024-02-16T10:50:44;14.60;99.90
14475;DHT22;7323;50.848;4.334;2024-02-16T10:53:30;14.50;99.90
14475;DHT22;7323;50.848;4.334;2024-02-16T10:55:58;14.50;99.90
14475;DHT22;7323;50.848;4.334;2024-02-16T10:58:27;14.60;99.90
14475;DHT22;7323;50.848;4.334;2024-02-16T11:00:54;14.50;99.90
14475;DHT22;7323;50.848;4.334;2024-02-16T11:03:24;14.50;99.90
14475;DHT22;7323;50.848;4.334;2024-02-16T11:05:51;14.50;99.90
14475;DHT22;7323;50.848;4.334;2024-02-16T11:08:18;14.50;99.90
14475;DHT22;7323;50.848;4.334;2024-02-16T11:13:24;14.40;99.90
14475;DHT22;7323;50.848;4.334;2024-02-16T11:16:03;14.40;99.90
14475;DHT22;7323;50.848;4.334;2024-02-16T11:18:30;14.40;99.90
14475;DHT22;7323;50.848;4.334;2024-02-16T11:21:00;14.30;99.90
14475;DHT22;7323;50.848;4.334;2024-02-16T11:23:30;14.30;99.90
14475;DHT22;7323;50.848;4.334;2024-02-16T11:26:03;14.30;99.90
14475;DHT22;7323;50.848;4.334;2024-02-16T11:28:33;14.30;99.90
14475;DHT22;7323;50.848;4.334;2024-02-16T11:31:00;14.20;99.90
14475;DHT22;7323;50.848;4.334;2024-02-16T11:33:26;14.20;99.90
14475;DHT22;7323;50.848;4.334;2024-02-16T11:35:56;14.20;99.90
14475;DHT22;7323;50.848;4.334;2024-02-16T11:38:23;14.20;99.90
14475;DHT22;7323;50.848;4.334;2024-02-16T11:41:01;14.10;99.90
14475;DHT22;7323;50.848;4.334;2024-02-16T11:43:27;14.10;99.90
14475;DHT22;7323;50.848;4.334;2024-02-16T11:45:53;14.10;99.90
14475;DHT22;7323;50.848;4.334;2024-02-16T11:48:23;14.10;99.90
14475;DHT22;7323;50.848;4.334;2024-02-16T11:50:50;14.10;99.90
14475;DHT22;7323;50.848;4.334;2024-02-16T11:53:17;14.20;99.90
14475;DHT22;7323;50.848;4.334;2024-02-16T11:55:48;14.20;99.90
14475;DHT22;7323;50.848;4.334;2024-02-16T11:58:18;14.20;99.90
14475;DHT22;7323;50.848;4.334;2024-02-16T12:00:45;14.10;99.90
14475;DHT22;7323;50.848;4.334;2024-02-16T12:03:11;14.20;99.90
14475;DHT22;7323;50.848;4.334;2024-02-16T12:05:37;14.10;99.90
14475;DHT22;7323;50.848;4.334;2024-02-16T12:08:03;14.10;99.90
14475;DHT22;7323;50.848;4.334;2024-02-16T12:10:31;13.90;99.90
14475;DHT22;7323;50.848;4.334;2024-02-16T12:12:58;13.80;99.90
14475;DHT22;7323;50.848;4.334;2024-02-16T12:15:23;13.80;99.90
14475;DHT22;7323;50.848;4.334;2024-02-16T12:17:59;13.80;99.90
14475;DHT22;7323;50.848;4.334;2024-02-16T12:20:25;13.70;99.90
14475;DHT22;7323;50.848;4.334;2024-02-16T12:22:51;13.60;99.90
14475;DHT22;7323;50.848;4.334;2024-02-16T12:25:17;13.70;99.90
14475;DHT22;7323;50.848;4.334;2024-02-16T12:27:42;13.70;99.90
14475;DHT22;7323;50.848;4.334;2024-02-16T12:30:09;13.60;99.90
14475;DHT22;7323;50.848;4.334;2024-02-16T12:32:34;13.60;99.90
14475;DHT22;7323;50.848;4.334;2024-02-16T12:35:00;13.60;99.90
14475;DHT22;7323;50.848;4.334;2024-02-16T12:37:26;13.70;99.90
14475;DHT22;7323;50.848;4.334;2024-02-16T12:39:51;13.60;99.90
14475;DHT22;7323;50.848;4.334;2024-02-16T12:42:17;13.60;99.90
14475;DHT22;7323;50.848;4.334;2024-02-16T12:44:43;13.40;99.90
14475;DHT22;7323;50.848;4.334;2024-02-16T12:47:08;13.60;99.90
14475;DHT22;7323;50.848;4.334;2024-02-16T12:49:34;13.50;99.90
14475;DHT22;7323;50.848;4.334;2024-02-16T12:52:01;13.50;99.90
14475;DHT22;7323;50.848;4.334;2024-02-16T12:54:27;13.40;99.90
14475;DHT22;7323;50.848;4.334;2024-02-16T12:56:52;13.50;99.90
14475;DHT22;7323;50.848;4.334;2024-02-16T12:59:19;13.50;99.90
14475;DHT22;7323;50.848;4.334;2024-02-16T13:01:44;13.50;99.90
14475;DHT22;7323;50.848;4.334;2024-02-16T13:04:11;13.50;99.90
14475;DHT22;7323;50.848;4.334;2024-02-16T13:06:38;13.50;99.90
14475;DHT22;7323;50.848;4.334;2024-02-16T13:09:03;13.50;99.90
14475;DHT22;7323;50.848;4.334;2024-02-16T13:11:33;13.60;99.90
14475;DHT22;7323;50.848;4.334;2024-02-16T13:13:59;13.60;99.90
14475;DHT22;7323;50.848;4.334;2024-02-16T13:16:25;13.60;99.90
14475;DHT22;7323;50.848;4.334;2024-02-16T13:18:52;13.60;99.90
14475;DHT22;7323;50.848;4.334;2024-02-16T13:21:18;13.60;99.90
14475;DHT22;7323;50.848;4.334;2024-02-16T13:23:44;13.60;99.90
14475;DHT22;7323;50.848;4.334;2024-02-16T13:26:10;13.60;99.90
14475;DHT22;7323;50.848;4.334;2024-02-16T13:28:35;13.60;99.90
14475;DHT22;7323;50.848;4.334;2024-02-16T13:31:01;13.60;99.90
14475;DHT22;7323;50.848;4.334;2024-02-16T13:33:27;13.60;99.90
14475;DHT22;7323;50.848;4.334;2024-02-16T13:35:52;13.60;99.90
14475;DHT22;7323;50.848;4.334;2024-02-16T13:38:20;13.60;99.90
14475;DHT22;7323;50.848;4.334;2024-02-16T13:40:45;13.70;99.90
14475;DHT22;7323;50.848;4.334;2024-02-16T13:43:11;13.70;99.90
14475;DHT22;7323;50.848;4.334;2024-02-16T13:45:53;13.90;99.90
14475;DHT22;7323;50.848;4.334;2024-02-16T13:48:19;13.90;99.90
14475;DHT22;7323;50.848;4.334;2024-02-16T13:50:47;13.90;99.90
14475;DHT22;7323;50.848;4.334;2024-02-16T13:53:13;13.80;99.90
14475;DHT22;7323;50.848;4.334;2024-02-16T13:55:43;13.80;99.90
14475;DHT22;7323;50.848;4.334;2024-02-16T13:58:12;14.00;99.90
14475;DHT22;7323;50.848;4.334;2024-02-16T14:00:37;14.10;99.90
14475;DHT22;7323;50.848;4.334;2024-02-16T14:03:05;14.30;99.90
14475;DHT22;7323;50.848;4.334;2024-02-16T14:05:35;14.20;99.90
14475;DHT22;7323;50.848;4.334;2024-02-16T14:08:01;14.20;99.90
14475;DHT22;7323;50.848;4.334;2024-02-16T14:10:27;14.20;99.90
14475;DHT22;7323;50.848;4.334;2024-02-16T14:12:53;14.20;99.90
14475;DHT22;7323;50.848;4.334;2024-02-16T14:15:18;14.30;99.90
14475;DHT22;7323;50.848;4.334;2024-02-16T14:17:45;14.30;99.90
14475;DHT22;7323;50.848;4.334;2024-02-16T14:20:11;14.30;99.90
14475;DHT22;7323;50.848;4.334;2024-02-16T14:22:37;14.20;99.90
14475;DHT22;7323;50.848;4.334;2024-02-16T14:25:03;14.20;99.90
14475;DHT22;7323;50.848;4.334;2024-02-16T14:27:29;14.20;99.90
14475;DHT22;7323;50.848;4.334;2024-02-16T14:29:58;14.20;99.90
14475;DHT22;7323;50.848;4.334;2024-02-16T14:32:24;14.10;99.90
14475;DHT22;7323;50.848;4.334;2024-02-16T14:34:50;14.10;99.90
14475;DHT22;7323;50.848;4.334;2024-02-16T14:37:15;14.10;99.90
14475;DHT22;7323;50.848;4.334;2024-02-16T14:39:41;14.20;99.90
14475;DHT22;7323;50.848;4.334;2024-02-16T14:42:06;14.20;99.90
14475;DHT22;7323;50.848;4.334;2024-02-16T14:44:32;14.20;99.90
14475;DHT22;7323;50.848;4.334;2024-02-16T14:46:58;14.30;99.90
14475;DHT22;7323;50.848;4.334;2024-02-16T14:49:23;14.30;99.90
14475;DHT22;7323;50.848;4.334;2024-02-16T14:51:50;14.40;99.90
14475;DHT22;7323;50.848;4.334;2024-02-16T14:54:18;14.50;99.90
14475;DHT22;7323;50.848;4.334;2024-02-16T14:56:44;14.50;99.90
14475;DHT22;7323;50.848;4.334;2024-02-16T14:59:09;14.50;99.90
14475;DHT22;7323;50.848;4.334;2024-02-16T15:01:36;14.40;99.90
14475;DHT22;7323;50.848;4.334;2024-02-16T15:04:03;14.50;99.90
14475;DHT22;7323;50.848;4.334;2024-02-16T15:06:30;14.50;99.90
14475;DHT22;7323;50.848;4.334;2024-02-16T15:08:59;14.70;99.90
14475;DHT22;7323;50.848;4.334;2024-02-16T15:11:24;14.70;99.90
14475;DHT22;7323;50.848;4.334;2024-02-16T15:13:51;14.70;99.90
14475;DHT22;7323;50.848;4.334;2024-02-16T15:16:16;14.70;99.90
14475;DHT22;7323;50.848;4.334;2024-02-16T15:18:42;14.70;99.90
14475;DHT22;7323;50.848;4.334;2024-02-16T15:21:08;14.60;99.90
14475;DHT22;7323;50.848;4.334;2024-02-16T15:23:33;14.60;99.90
14475;DHT22;7323;50.848;4.334;2024-02-16T15:25:59;14.60;99.90
14475;DHT22;7323;50.848;4.334;2024-02-16T15:28:28;14.50;99.90
14475;DHT22;7323;50.848;4.334;2024-02-16T15:30:54;14.50;99.90
14475;DHT22;7323;50.848;4.334;2024-02-16T15:33:19;14.50;99.90
14475;DHT22;7323;50.848;4.334;2024-02-16T15:35:45;14.50;99.90
14475;DHT22;7323;50.848;4.334;2024-02-16T15:38:11;14.50;99.90
14475;DHT22;7323;50.848;4.334;2024-02-16T15:40:36;14.30;99.90
14475;DHT22;7323;50.848;4.334;2024-02-16T15:43:03;14.40;99.90
14475;DHT22;7323;50.848;4.334;2024-02-16T15:45:30;14.50;99.90
14475;DHT22;7323;50.848;4.334;2024-02-16T15:47:56;14.50;99.90